Time;durP1;ratioP1;P1;durP2;ratioP2;P2;SDS_P1;SDS_P2;PMS_P1;PMS_P2;Temp;Humidity;BMP_temperature;BMP_pressure;BME280_temperature;BME280_humidity;BME280_pressure;Samples;Min_cycle;Max_cycle;Signal;HPM_P1;HPM_P2
2022/10/30 00:00:10;;;;;;;13.90;2.55;;;;;;;11.45;100.00;99347.97;5021811;28;20037;-78
2022/10/30 00:02:36;;;;;;;12.02;2.17;;;;;;;11.65;100.00;99337.09;5001499;28;20069;-78
2022/10/30 00:05:02;;;;;;;14.07;2.65;;;;;;;11.83;100.00;99322.06;4986314;28;20428;-75
2022/10/30 00:07:27;;;;;;;12.10;2.67;;;;;;;11.59;100.00;99294.06;5003174;28;20044;-77
2022/10/30 00:09:53;;;;;;;8.27;1.63;;;;;;;11.90;100.00;99319.34;5022187;28;20264;-77
2022/10/30 00:12:19;;;;;;;8.20;2.20;;;;;;;11.79;100.00;99324.38;5008059;28;20049;-76
2022/10/30 00:14:45;;;;;;;11.10;2.72;;;;;;;11.80;100.00;99327.88;5008666;28;20090;-76
2022/10/30 00:17:10;;;;;;;9.30;2.63;;;;;;;11.81;100.00;99322.28;5008872;28;20037;-77
2022/10/30 00:19:36;;;;;;;19.83;4.25;;;;;;;12.01;100.00;99327.56;5024332;28;20041;-76
2022/10/30 00:22:02;;;;;;;10.52;1.90;;;;;;;12.18;100.00;99330.50;5020080;28;20112;-76
2022/10/30 00:24:28;;;;;;;15.00;2.15;;;;;;;12.23;100.00;99305.59;5024099;28;20025;-75
2022/10/30 00:26:53;;;;;;;13.95;2.80;;;;;;;12.25;100.00;99325.03;4990513;28;20037;-76
2022/10/30 00:29:22;;;;;;;11.60;2.45;;;;;;;12.20;100.00;99311.41;5015322;28;20030;-75
2022/10/30 00:31:48;;;;;;;16.77;2.35;;;;;;;12.44;100.00;99336.69;5024216;28;20029;-76
2022/10/30 00:34:14;;;;;;;10.93;2.50;;;;;;;12.59;100.00;99345.22;5011572;28;20032;-76
2022/10/30 00:36:39;;;;;;;10.35;1.90;;;;;;;12.63;100.00;99348.31;5006538;28;20403;-77
2022/10/30 00:39:05;;;;;;;15.90;4.05;;;;;;;12.59;100.00;99320.97;5024402;28;20029;-79
2022/10/30 00:41:31;;;;;;;12.48;1.92;;;;;;;12.78;100.00;99340.69;5004295;28;20643;-80
2022/10/30 00:43:57;;;;;;;13.05;2.78;;;;;;;12.82;100.00;99349.16;5022935;28;20025;-76
2022/10/30 00:46:35;;;;;;;14.95;2.75;;;;;;;12.91;100.00;99359.44;5003390;28;20121;-76
2022/10/30 00:49:18;;;;;;;11.18;1.80;;;;;;;12.92;100.00;99361.06;5018313;28;20496;-78
2022/10/30 00:51:48;;;;;;;13.88;2.78;;;;;;;13.02;100.00;99355.16;5002577;28;20107;-76
2022/10/30 00:54:17;;;;;;;13.45;2.22;;;;;;;12.95;100.00;99346.28;5006531;28;20399;-75
2022/10/30 00:56:43;;;;;;;8.38;1.75;;;;;;;12.85;100.00;99344.13;5021177;28;20036;-76
2022/10/30 00:59:22;;;;;;;11.13;3.22;;;;;;;12.72;100.00;99342.38;5008894;28;20034;-76
2022/10/30 01:01:48;;;;;;;12.63;2.05;;;;;;;12.62;100.00;99344.81;5042129;28;20083;-77
2022/10/30 01:04:14;;;;;;;7.82;2.40;;;;;;;12.48;100.00;99325.22;5030087;28;20033;-77
2022/10/30 01:06:42;;;;;;;12.02;1.98;;;;;;;12.40;100.00;99336.31;5013525;28;20037;-76
2022/10/30 01:09:08;;;;;;;10.32;1.75;;;;;;;12.38;100.00;99326.78;5014467;28;20034;-77
2022/10/30 01:11:33;;;;;;;9.43;1.85;;;;;;;12.43;100.00;99333.16;4994267;28;20059;-76
2022/10/30 01:14:03;;;;;;;10.27;2.00;;;;;;;12.45;100.00;99333.75;5005192;28;20474;-75
2022/10/30 01:16:31;;;;;;;10.35;2.05;;;;;;;12.55;100.00;99338.66;5028152;28;20091;-76
2022/10/30 01:18:58;;;;;;;7.90;1.88;;;;;;;12.64;100.00;99350.78;5038630;28;20033;-75
2022/10/30 01:21:57;;;;;;;5.45;1.35;;;;;;;12.66;100.00;99332.50;5031007;28;20279;-77
2022/10/30 01:24:55;;;;;;;17.50;2.95;;;;;;;12.43;100.00;99324.25;5030844;28;20033;-76
2022/10/30 01:27:53;;;;;;;9.50;1.42;;;;;;;12.32;100.00;99315.84;4989284;28;20045;-76
2022/10/30 01:30:35;;;;;;;7.97;2.38;;;;;;;12.14;100.00;99328.47;5029611;28;20475;-78
2022/10/30 01:33:21;;;;;;;8.30;1.40;;;;;;;12.03;100.00;99303.88;5012281;28;20141;-76
2022/10/30 01:35:59;;;;;;;7.70;1.45;;;;;;;12.22;100.00;99320.09;5029869;28;20618;-78
2022/10/30 01:38:28;;;;;;;7.50;2.15;;;;;;;12.30;100.00;99328.75;4996257;28;20038;-78
2022/10/30 01:40:54;;;;;;;14.52;1.75;;;;;;;12.25;100.00;99309.72;5025098;28;20041;-79
2022/10/30 01:43:21;;;;;;;11.27;2.65;;;;;;;12.40;100.00;99311.22;5023934;28;20041;-80
2022/10/30 01:46:23;;;;;;;12.73;2.00;;;;;;;12.57;100.00;99330.31;5056648;28;20048;-78
2022/10/30 01:49:18;;;;;;;5.85;1.52;;;;;;;12.52;100.00;99320.22;5030390;28;20041;-79
2022/10/30 01:51:46;;;;;;;7.32;1.70;;;;;;;12.52;100.00;99325.63;5004434;28;20047;-79
2022/10/30 01:54:37;;;;;;;12.05;2.20;;;;;;;12.52;100.00;99326.44;5029381;28;20383;-77
2022/10/30 01:57:09;;;;;;;11.23;1.80;;;;;;;12.43;100.00;99329.66;5010350;28;20104;-79
2022/10/30 01:59:37;;;;;;;11.80;2.00;;;;;;;12.26;100.00;99322.13;5016191;28;20072;-77
2022/10/30 02:02:03;;;;;;;14.82;2.10;;;;;;;12.14;100.00;99315.81;5026928;28;20555;-77
2022/10/30 02:04:28;;;;;;;5.75;1.77;;;;;;;12.07;100.00;99310.50;5011601;28;20116;-78
2022/10/30 02:06:54;;;;;;;4.10;1.10;;;;;;;12.10;100.00;99326.22;5013082;28;20038;-77
2022/10/30 02:09:20;;;;;;;12.30;2.53;;;;;;;12.16;100.00;99331.78;4994524;28;20079;-79
2022/10/30 02:11:46;;;;;;;4.20;1.60;;;;;;;12.17;100.00;99328.03;5008081;28;20049;-78
2022/10/30 02:14:16;;;;;;;6.65;1.70;;;;;;;12.27;100.00;99350.72;5023958;28;20030;-78
2022/10/30 02:16:44;;;;;;;8.02;2.58;;;;;;;12.29;100.00;99332.47;5026789;28;20037;-78
2022/10/30 02:19:10;;;;;;;9.30;2.10;;;;;;;12.31;100.00;99341.16;4996063;28;20037;-79
2022/10/30 02:21:36;;;;;;;16.83;2.30;;;;;;;12.28;100.00;99338.91;4993643;28;20057;-78
2022/10/30 02:24:01;;;;;;;7.45;1.58;;;;;;;12.24;100.00;99337.69;5026500;28;20041;-77
2022/10/30 02:26:27;;;;;;;9.18;1.77;;;;;;;12.28;100.00;99349.69;5027209;28;20060;-78
2022/10/30 02:28:52;;;;;;;11.65;2.38;;;;;;;12.35;100.00;99341.53;5029031;28;20037;-78
2022/10/30 02:31:21;;;;;;;11.18;2.33;;;;;;;12.44;100.00;99358.25;5009971;28;20031;-78
2022/10/30 02:33:48;;;;;;;10.55;1.58;;;;;;;12.48;100.00;99349.50;5005833;28;20029;-78
2022/10/30 02:36:16;;;;;;;5.13;1.70;;;;;;;12.42;100.00;99345.00;5022845;28;20037;-78
2022/10/30 02:38:43;;;;;;;6.05;1.75;;;;;;;12.45;100.00;99338.34;5011112;28;20474;-78
2022/10/30 02:41:09;;;;;;;8.80;2.15;;;;;;;12.46;100.00;99353.44;5024485;28;20060;-78
2022/10/30 02:43:35;;;;;;;6.60;1.70;;;;;;;12.47;100.00;99333.56;5022284;28;20029;-76
2022/10/30 02:46:00;;;;;;;10.30;1.52;;;;;;;12.42;100.00;99341.47;4985978;28;20380;-77
2022/10/30 02:48:26;;;;;;;4.35;1.80;;;;;;;12.25;100.00;99338.50;5011283;28;20361;-76
2022/10/30 02:50:51;;;;;;;9.73;2.03;;;;;;;11.90;100.00;99322.03;5024236;28;20036;-77
2022/10/30 02:53:17;;;;;;;8.82;2.08;;;;;;;11.68;100.00;99343.09;4994147;28;20682;-77
2022/10/30 02:55:43;;;;;;;9.95;2.03;;;;;;;11.42;100.00;99348.41;4998333;28;20033;-77
2022/10/30 02:58:08;;;;;;;9.55;1.38;;;;;;;11.10;100.00;99342.16;5005232;28;20052;-77
2022/10/30 03:00:34;;;;;;;7.30;1.40;;;;;;;11.12;100.00;99356.25;5015778;28;20444;-78
2022/10/30 03:02:59;;;;;;;5.32;1.48;;;;;;;11.10;100.00;99349.44;5023913;28;20036;-78
2022/10/30 03:05:25;;;;;;;7.30;1.58;;;;;;;10.94;100.00;99326.53;5027327;28;20060;-77
2022/10/30 03:07:51;;;;;;;3.63;1.02;;;;;;;11.08;100.00;99355.00;4992590;28;20854;-77
2022/10/30 03:10:17;;;;;;;12.23;1.67;;;;;;;11.07;100.00;99347.16;5011181;28;20030;-78
2022/10/30 03:12:43;;;;;;;8.60;1.73;;;;;;;11.18;100.00;99346.50;4993633;28;20506;-78
2022/10/30 03:15:09;;;;;;;8.52;1.58;;;;;;;11.25;100.00;99368.81;4994082;28;20040;-77
2022/10/30 03:17:35;;;;;;;11.65;2.45;;;;;;;11.29;100.00;99370.03;4996789;28;20037;-78
2022/10/30 03:20:00;;;;;;;8.57;1.40;;;;;;;11.29;100.00;99366.50;4993033;28;20156;-77
2022/10/30 03:22:26;;;;;;;4.95;1.20;;;;;;;11.31;100.00;99361.75;4991865;28;20041;-76
2022/10/30 03:24:54;;;;;;;5.93;1.85;;;;;;;11.35;100.00;99358.41;5023905;28;20483;-76
2022/10/30 03:27:20;;;;;;;9.35;2.55;;;;;;;11.20;100.00;99355.19;4991316;28;20044;-77
2022/10/30 03:29:45;;;;;;;6.97;1.80;;;;;;;11.21;100.00;99365.72;5008593;28;20049;-76
2022/10/30 03:32:11;;;;;;;5.47;1.52;;;;;;;11.21;100.00;99360.31;4992964;28;20092;-77
2022/10/30 03:34:37;;;;;;;8.48;1.50;;;;;;;11.27;100.00;99355.94;4992553;28;20048;-78
2022/10/30 03:37:03;;;;;;;2.75;1.00;;;;;;;11.02;100.00;99320.91;5009286;28;20388;-76
2022/10/30 03:39:29;;;;;;;5.00;1.58;;;;;;;11.12;100.00;99350.88;5022213;28;20307;-77
2022/10/30 03:41:54;;;;;;;10.60;2.30;;;;;;;11.03;100.00;99345.94;4990249;28;20041;-77
2022/10/30 03:44:20;;;;;;;8.55;1.60;;;;;;;10.86;100.00;99338.34;4991721;28;20073;-77
2022/10/30 03:46:46;;;;;;;7.30;1.23;;;;;;;10.86;100.00;99359.84;5008715;28;20044;-77
2022/10/30 03:49:11;;;;;;;7.47;1.77;;;;;;;10.86;100.00;99359.03;4996413;28;20037;-77
2022/10/30 03:51:37;;;;;;;10.50;1.70;;;;;;;10.86;100.00;99362.53;4987684;28;20099;-76
2022/10/30 03:54:03;;;;;;;10.05;1.85;;;;;;;10.77;100.00;99358.44;4993494;28;20045;-77
2022/10/30 03:56:28;;;;;;;7.45;1.25;;;;;;;10.67;100.00;99360.75;5021850;28;20029;-76
2022/10/30 03:58:54;;;;;;;3.63;1.30;;;;;;;10.56;100.00;99359.53;5007083;28;20080;-77
2022/10/30 04:01:19;;;;;;;4.57;1.45;;;;;;;10.62;100.00;99357.88;5024480;28;20033;-78
2022/10/30 04:03:45;;;;;;;6.75;1.30;;;;;;;10.73;100.00;99349.97;5027831;28;20033;-77
2022/10/30 04:06:11;;;;;;;4.43;1.17;;;;;;;10.77;100.00;99356.59;5002004;28;20033;-77
2022/10/30 04:08:39;;;;;;;4.50;1.35;;;;;;;10.75;100.00;99358.66;5029253;28;20145;-78
2022/10/30 04:11:04;;;;;;;1.80;0.73;;;;;;;10.73;100.00;99351.81;4995240;28;20025;-78
2022/10/30 04:13:30;;;;;;;2.47;0.80;;;;;;;10.74;100.00;99370.44;5008426;28;20100;-78
2022/10/30 04:15:56;;;;;;;5.80;1.20;;;;;;;10.80;100.00;99374.16;5027101;28;20033;-78
2022/10/30 04:18:22;;;;;;;6.78;1.10;;;;;;;10.90;100.00;99366.47;4990158;28;20419;-77
2022/10/30 04:20:47;;;;;;;5.95;1.35;;;;;;;10.93;100.00;99352.59;5024205;28;20048;-76
2022/10/30 04:23:15;;;;;;;7.78;1.45;;;;;;;10.94;100.00;99354.25;4992774;28;20029;-78
2022/10/30 04:25:41;;;;;;;10.68;1.58;;;;;;;10.85;100.00;99346.59;5006147;28;20555;-78
2022/10/30 04:28:07;;;;;;;5.70;1.20;;;;;;;10.75;100.00;99352.44;5028289;28;20132;-77
2022/10/30 04:30:34;;;;;;;8.63;1.35;;;;;;;10.67;100.00;99355.38;5006890;28;20029;-77
2022/10/30 04:33:01;;;;;;;5.53;1.73;;;;;;;10.64;100.00;99353.06;5023014;28;20057;-78
2022/10/30 04:35:29;;;;;;;5.30;1.90;;;;;;;10.49;100.00;99338.03;5021298;28;20061;-78
2022/10/30 04:38:00;;;;;;;9.45;1.65;;;;;;;10.36;100.00;99313.06;5026025;28;20040;-77
2022/10/30 04:40:28;;;;;;;6.45;1.30;;;;;;;10.52;100.00;99348.34;4996577;28;20048;-77
2022/10/30 04:42:54;;;;;;;7.15;1.15;;;;;;;10.56;100.00;99348.78;4988845;28;20040;-78
2022/10/30 04:45:19;;;;;;;7.95;1.50;;;;;;;10.60;100.00;99339.25;5004445;28;20041;-76
2022/10/30 04:47:45;;;;;;;13.07;1.60;;;;;;;10.55;100.00;99315.69;5006625;28;20045;-77
2022/10/30 04:50:12;;;;;;;8.88;1.58;;;;;;;10.70;100.00;99333.44;5019157;28;20419;-76
2022/10/30 04:52:38;;;;;;;11.27;1.48;;;;;;;10.82;100.00;99344.34;5004007;28;20036;-77
2022/10/30 04:55:04;;;;;;;5.10;1.42;;;;;;;10.86;100.00;99348.28;5005329;28;20296;-77
2022/10/30 04:57:30;;;;;;;12.02;2.28;;;;;;;10.91;100.00;99338.53;4981709;28;20037;-78
2022/10/30 04:59:56;;;;;;;6.50;1.70;;;;;;;11.02;100.00;99346.97;5018565;28;20036;-77
2022/10/30 05:02:22;;;;;;;10.93;2.08;;;;;;;10.98;100.00;99351.94;5017442;28;20036;-78
2022/10/30 05:04:48;;;;;;;9.82;1.60;;;;;;;10.95;100.00;99353.19;5020702;28;20037;-77
2022/10/30 05:07:14;;;;;;;10.05;1.90;;;;;;;11.08;100.00;99356.88;5010286;28;20033;-77
2022/10/30 05:09:40;;;;;;;9.07;1.98;;;;;;;11.08;100.00;99351.50;4990975;28;20052;-77
2022/10/30 05:12:06;;;;;;;9.38;1.73;;;;;;;11.12;100.00;99355.44;4988700;28;20034;-76
2022/10/30 05:14:32;;;;;;;4.65;1.27;;;;;;;11.21;100.00;99346.88;4988829;28;20041;-78
2022/10/30 05:16:58;;;;;;;7.80;2.05;;;;;;;11.31;100.00;99349.13;5024976;28;20563;-77
2022/10/30 05:19:24;;;;;;;6.38;1.50;;;;;;;11.43;100.00;99349.25;5008974;28;20037;-78
2022/10/30 05:21:50;;;;;;;8.50;1.63;;;;;;;11.43;100.00;99358.16;4990034;28;20084;-77
2022/10/30 05:24:15;;;;;;;15.23;2.35;;;;;;;11.35;100.00;99344.97;5021764;28;20068;-79
2022/10/30 05:26:41;;;;;;;4.90;1.52;;;;;;;11.35;100.00;99358.41;4986556;28;20037;-77
2022/10/30 05:29:07;;;;;;;7.30;1.63;;;;;;;11.27;100.00;99355.94;5001602;28;20041;-77
2022/10/30 05:31:32;;;;;;;6.22;1.40;;;;;;;11.25;100.00;99360.75;4987945;28;20033;-77
2022/10/30 05:33:58;;;;;;;3.65;1.05;;;;;;;11.27;100.00;99358.63;5007614;28;20033;-77
2022/10/30 05:36:24;;;;;;;5.15;1.20;;;;;;;11.25;100.00;99344.59;4990565;28;20041;-78
2022/10/30 05:38:49;;;;;;;10.02;1.42;;;;;;;11.22;100.00;99347.72;5057328;28;20408;-77
2022/10/30 05:41:18;;;;;;;7.20;1.90;;;;;;;11.19;100.00;99353.50;5021412;28;20092;-76
2022/10/30 05:43:43;;;;;;;11.23;2.05;;;;;;;11.07;100.00;99342.59;4989424;28;20439;-76
2022/10/30 05:46:09;;;;;;;6.43;2.42;;;;;;;10.86;100.00;99326.78;4992820;28;20075;-77
2022/10/30 05:48:35;;;;;;;6.65;1.40;;;;;;;10.91;100.00;99337.72;5025580;28;20053;-77
2022/10/30 05:51:01;;;;;;;11.75;1.90;;;;;;;10.92;100.00;99348.25;4993872;28;20041;-77
2022/10/30 05:53:27;;;;;;;13.00;2.08;;;;;;;10.95;100.00;99338.91;5005162;28;20037;-75
2022/10/30 05:55:56;;;;;;;13.65;2.22;;;;;;;11.00;100.00;99342.63;5011867;28;20034;-78
2022/10/30 05:58:22;;;;;;;8.80;1.65;;;;;;;10.92;100.00;99329.41;5009286;28;20128;-77
2022/10/30 06:00:48;;;;;;;11.30;2.03;;;;;;;10.93;100.00;99341.03;5011462;28;20552;-78
2022/10/30 06:03:13;;;;;;;4.65;1.20;;;;;;;10.85;100.00;99336.69;4990134;28;20257;-79
2022/10/30 06:05:39;;;;;;;12.32;1.58;;;;;;;10.85;100.00;99334.00;4996850;28;20440;-78
2022/10/30 06:08:06;;;;;;;11.60;2.17;;;;;;;10.94;100.00;99339.97;5012635;28;20036;-78
2022/10/30 06:10:32;;;;;;;6.05;1.50;;;;;;;10.93;100.00;99341.84;4988810;28;20044;-79
2022/10/30 06:13:00;;;;;;;3.72;1.90;;;;;;;11.05;100.00;99336.59;5025700;28;20033;-77
2022/10/30 06:15:26;;;;;;;7.18;1.60;;;;;;;11.14;100.00;99342.56;5029165;28;20029;-75
2022/10/30 06:17:52;;;;;;;15.18;1.90;;;;;;;11.19;100.00;99348.13;5013158;28;20077;-76
2022/10/30 06:20:19;;;;;;;11.40;2.15;;;;;;;11.20;100.00;99333.66;4995999;28;20071;-76
2022/10/30 06:22:58;;;;;;;11.00;1.40;;;;;;;11.35;100.00;99344.13;5009948;28;20132;-77
2022/10/30 06:25:24;;;;;;;8.55;1.77;;;;;;;11.32;100.00;99334.59;5006282;28;20260;-77
2022/10/30 06:27:50;;;;;;;4.85;1.10;;;;;;;11.16;100.00;99317.09;5009041;28;20041;-78
2022/10/30 06:30:16;;;;;;;7.13;1.70;;;;;;;11.21;100.00;99319.97;4995862;28;20045;-78
2022/10/30 06:32:41;;;;;;;10.25;1.52;;;;;;;11.14;100.00;99318.34;5021741;28;20124;-76
2022/10/30 06:35:07;;;;;;;9.48;1.42;;;;;;;11.08;100.00;99324.59;5007940;28;20033;-78
2022/10/30 06:37:33;;;;;;;2.90;0.80;;;;;;;10.88;100.00;99308.56;5020595;28;20068;-76
2022/10/30 06:39:59;;;;;;;7.05;1.30;;;;;;;10.83;100.00;99322.63;5019792;28;20984;-78
2022/10/30 06:42:25;;;;;;;7.45;1.77;;;;;;;10.87;100.00;99339.97;5020490;28;20029;-77
2022/10/30 06:44:50;;;;;;;9.90;1.90;;;;;;;10.82;100.00;99333.59;4991398;28;20057;-77
2022/10/30 06:47:16;;;;;;;4.72;1.13;;;;;;;10.64;100.00;99307.38;4990692;28;20041;-76
2022/10/30 06:49:42;;;;;;;9.07;1.77;;;;;;;10.75;100.00;99336.31;5019211;28;20056;-76
2022/10/30 06:52:07;;;;;;;17.77;1.58;;;;;;;10.69;100.00;99337.16;5018192;28;20022;-76
2022/10/30 06:54:33;;;;;;;10.02;1.50;;;;;;;10.72;100.00;99337.56;5018233;28;20384;-78
2022/10/30 06:56:59;;;;;;;10.25;2.22;;;;;;;10.72;100.00;99342.13;5016570;28;20033;-79
2022/10/30 06:59:25;;;;;;;7.10;1.63;;;;;;;10.70;100.00;99345.00;5019576;28;20029;-79
2022/10/30 07:01:50;;;;;;;8.90;2.00;;;;;;;10.68;100.00;99347.06;5008665;28;20029;-78
2022/10/30 07:04:16;;;;;;;9.25;1.45;;;;;;;10.67;100.00;99337.38;4986638;28;20060;-78
2022/10/30 07:06:42;;;;;;;9.82;1.65;;;;;;;10.60;100.00;99333.88;5008892;28;20072;-78
2022/10/30 07:09:07;;;;;;;5.28;1.20;;;;;;;10.64;100.00;99342.31;5010102;28;20641;-78
2022/10/30 07:11:33;;;;;;;5.22;1.27;;;;;;;10.56;100.00;99346.91;5008630;28;20449;-78
2022/10/30 07:13:59;;;;;;;6.20;1.30;;;;;;;10.54;100.00;99351.66;5008477;28;20025;-78
2022/10/30 07:16:25;;;;;;;4.85;1.45;;;;;;;10.50;100.00;99353.09;5006363;28;20329;-78
2022/10/30 07:18:51;;;;;;;4.95;2.08;;;;;;;10.44;100.00;99340.53;5026818;28;20499;-76
2022/10/30 07:21:16;;;;;;;6.75;2.20;;;;;;;10.28;100.00;99332.91;4994351;28;20652;-78
2022/10/30 07:23:42;;;;;;;7.78;1.88;;;;;;;10.25;100.00;99347.53;5042521;28;20034;-76
2022/10/30 07:26:08;;;;;;;2.75;1.23;;;;;;;10.16;100.00;99362.25;5027130;28;20086;-77
2022/10/30 07:28:33;;;;;;;3.47;1.00;;;;;;;10.09;100.00;99351.47;4993238;28;20138;-76
2022/10/30 07:30:59;;;;;;;3.38;0.93;;;;;;;10.16;100.00;99358.69;5006331;28;20132;-77
2022/10/30 07:33:25;;;;;;;5.82;1.33;;;;;;;10.23;100.00;99357.66;4990518;28;20394;-78
2022/10/30 07:35:50;;;;;;;2.00;0.80;;;;;;;10.35;100.00;99365.97;5004189;28;20037;-77
2022/10/30 07:38:16;;;;;;;3.85;0.82;;;;;;;10.48;100.00;99368.63;4993415;28;20040;-78
2022/10/30 07:40:42;;;;;;;3.80;0.90;;;;;;;10.61;100.00;99372.31;5029560;28;20049;-77
2022/10/30 07:43:12;;;;;;;8.60;1.27;;;;;;;10.63;100.00;99375.63;5007890;28;20037;-77
2022/10/30 07:45:38;;;;;;;3.03;0.90;;;;;;;10.70;100.00;99377.28;4994344;28;20047;-77
2022/10/30 07:48:04;;;;;;;2.10;0.60;;;;;;;10.67;100.00;99368.81;4987551;28;20052;-77
2022/10/30 07:50:31;;;;;;;3.05;0.80;;;;;;;10.74;100.00;99378.53;4994440;28;20068;-77
2022/10/30 07:52:57;;;;;;;3.00;0.73;;;;;;;10.71;100.00;99372.72;5022063;28;20044;-76
2022/10/30 07:55:23;;;;;;;0.47;0.40;;;;;;;10.68;100.00;99362.38;5011794;28;20076;-77
2022/10/30 07:57:51;;;;;;;1.55;0.80;;;;;;;10.71;100.00;99381.59;5006980;28;20092;-76
2022/10/30 08:00:17;;;;;;;0.68;0.50;;;;;;;10.61;100.00;99364.25;5005084;28;20026;-78
2022/10/30 08:02:42;;;;;;;2.00;0.60;;;;;;;10.74;100.00;99383.91;5008199;28;20474;-77
2022/10/30 08:05:08;;;;;;;6.20;0.70;;;;;;;10.80;100.00;99387.59;5020447;28;20414;-77
2022/10/30 08:07:36;;;;;;;2.95;0.82;;;;;;;10.92;100.00;99385.88;5021072;28;20045;-77
2022/10/30 08:10:02;;;;;;;2.72;0.88;;;;;;;11.11;100.00;99384.16;5028708;28;20029;-77
2022/10/30 08:12:28;;;;;;;6.57;1.02;;;;;;;11.28;100.00;99384.53;4994835;28;20045;-77
2022/10/30 08:14:54;;;;;;;7.32;1.17;;;;;;;11.49;100.00;99391.47;5010896;28;20030;-77
2022/10/30 08:17:20;;;;;;;4.47;1.38;;;;;;;11.56;100.00;99381.47;5007935;28;20034;-79
2022/10/30 08:19:46;;;;;;;3.25;0.95;;;;;;;11.50;100.00;99379.66;5018056;28;20059;-77
2022/10/30 08:22:13;;;;;;;2.95;0.90;;;;;;;11.50;100.00;99385.03;5025670;28;20044;-77
2022/10/30 08:24:38;;;;;;;2.83;0.93;;;;;;;11.37;100.00;99372.47;4989079;28;20037;-77
2022/10/30 08:27:04;;;;;;;3.67;0.82;;;;;;;11.35;100.00;99390.72;5019938;28;20048;-78
2022/10/30 08:29:30;;;;;;;3.58;0.90;;;;;;;11.39;100.00;99391.09;5022699;28;20116;-77
2022/10/30 08:31:56;;;;;;;10.55;1.30;;;;;;;11.69;100.00;99385.94;5008200;28;20130;-77
2022/10/30 08:34:22;;;;;;;1.98;0.70;;;;;;;12.18;100.00;99379.00;5008755;28;20384;-77
2022/10/30 08:36:49;;;;;;;2.85;1.00;;;;;;;12.51;100.00;99388.66;5025089;28;20044;-77
2022/10/30 08:39:15;;;;;;;3.70;1.02;;;;;;;13.22;100.00;99381.06;4989505;28;20117;-76
2022/10/30 08:41:41;;;;;;;2.92;0.80;;;;;;;14.75;92.63;99384.97;5019314;28;20061;-76
2022/10/30 08:44:06;;;;;;;3.20;1.13;;;;;;;15.72;85.54;99365.31;5026023;28;20471;-77
2022/10/30 08:46:32;;;;;;;2.55;0.80;;;;;;;15.38;85.09;99364.34;4988332;28;20132;-77
2022/10/30 08:48:58;;;;;;;2.70;1.00;;;;;;;15.67;83.37;99373.31;4994438;28;20061;-78
2022/10/30 08:51:23;;;;;;;2.92;1.35;;;;;;;14.71;88.37;99386.50;4984535;28;20037;-76
2022/10/30 08:53:49;;;;;;;2.60;0.95;;;;;;;14.25;90.81;99385.41;5017589;28;20147;-77
2022/10/30 08:56:16;;;;;;;2.33;0.75;;;;;;;13.80;93.06;99386.72;5025938;28;20037;-78
2022/10/30 08:58:41;;;;;;;3.30;0.93;;;;;;;13.38;96.14;99388.56;4993473;28;20068;-77
2022/10/30 09:01:07;;;;;;;4.72;0.93;;;;;;;12.99;99.00;99387.94;5000919;28;20034;-78
2022/10/30 09:03:33;;;;;;;2.75;1.10;;;;;;;12.57;100.00;99382.41;5018302;28;20037;-78
2022/10/30 09:06:00;;;;;;;3.53;1.13;;;;;;;12.27;100.00;99388.47;5019772;28;20045;-76
2022/10/30 09:08:26;;;;;;;1.42;0.70;;;;;;;12.02;100.00;99398.41;5004724;28;20029;-77
2022/10/30 09:10:56;;;;;;;3.13;0.80;;;;;;;11.81;100.00;99396.88;5009793;28;20086;-77
2022/10/30 09:13:22;;;;;;;7.07;1.63;;;;;;;11.67;100.00;99406.91;4995261;28;20109;-76
2022/10/30 09:15:47;;;;;;;5.68;0.98;;;;;;;11.55;100.00;99408.63;4983842;28;20266;-77
2022/10/30 09:18:13;;;;;;;1.90;0.80;;;;;;;11.55;100.00;99425.59;5034320;28;20156;-76
2022/10/30 09:20:39;;;;;;;3.90;1.33;;;;;;;11.49;100.00;99396.03;4982964;28;20052;-76
2022/10/30 09:23:05;;;;;;;7.50;1.17;;;;;;;12.03;100.00;99417.03;4994099;28;20030;-78
2022/10/30 09:25:30;;;;;;;6.13;1.10;;;;;;;12.09;100.00;99418.03;5005129;28;20041;-76
2022/10/30 09:27:56;;;;;;;8.05;1.50;;;;;;;12.08;100.00;99421.78;5013221;28;20037;-78
2022/10/30 09:30:22;;;;;;;1.95;1.00;;;;;;;12.20;100.00;99420.03;4988679;28;20029;-78
2022/10/30 09:32:58;;;;;;;5.63;0.98;;;;;;;12.52;100.00;99411.91;5004216;28;20073;-76
2022/10/30 09:35:24;;;;;;;6.60;1.60;;;;;;;13.01;100.00;99420.13;5025323;28;20053;-77
2022/10/30 09:37:50;;;;;;;5.80;1.15;;;;;;;13.11;100.00;99421.25;5007926;28;20976;-77
2022/10/30 09:40:31;;;;;;;8.15;1.83;;;;;;;13.07;100.00;99422.75;4998138;28;20686;-77
2022/10/30 09:43:08;;;;;;;3.58;0.82;;;;;;;13.08;100.00;99410.09;5001546;28;20135;-76
2022/10/30 09:45:49;;;;;;;4.18;1.13;;;;;;;13.05;100.00;99405.13;5025353;28;20037;-77
2022/10/30 09:48:29;;;;;;;7.75;2.25;;;;;;;13.31;100.00;99407.56;5038175;28;20060;-83
2022/10/30 09:51:13;;;;;;;7.60;1.35;;;;;;;15.68;100.00;99393.91;5009533;28;20041;-86
2022/10/30 09:53:49;;;;;;;1.40;0.73;;;;;;;15.33;100.00;99389.44;5029546;28;20215;-85
2022/10/30 09:56:25;;;;;;;7.25;1.42;;;;;;;14.36;100.00;99416.22;5012835;28;20489;-86
2022/10/30 09:59:21;;;;;;;2.13;1.00;;;;;;;13.60;100.00;99419.44;4997547;28;20061;-85
2022/10/30 10:02:16;;;;;;;4.50;0.85;;;;;;;13.24;100.00;99431.06;5029013;28;20036;-85
2022/10/30 10:04:55;;;;;;;2.63;0.95;;;;;;;12.84;100.00;99392.91;5013626;28;20041;-84
2022/10/30 10:07:31;;;;;;;3.08;0.70;;;;;;;12.91;100.00;99434.97;5030828;28;20136;-84
2022/10/30 10:10:09;;;;;;;4.03;0.80;;;;;;;12.67;100.00;99431.22;5012267;28;20034;-84
2022/10/30 10:12:42;;;;;;;1.85;0.70;;;;;;;12.51;100.00;99435.31;5011205;28;20037;-84
2022/10/30 10:15:35;;;;;;;3.42;0.68;;;;;;;12.34;100.00;99436.09;5014828;28;20037;-84
2022/10/30 10:18:01;;;;;;;3.50;1.13;;;;;;;12.25;100.00;99433.69;5005207;28;20045;-84
2022/10/30 10:20:32;;;;;;;1.33;0.70;;;;;;;12.24;100.00;99444.69;5011615;28;20084;-84
2022/10/30 10:23:03;;;;;;;1.45;0.73;;;;;;;12.23;100.00;99451.13;5011142;28;20142;-84
2022/10/30 10:25:30;;;;;;;3.95;1.02;;;;;;;12.18;100.00;99454.47;5013865;28;20029;-84
2022/10/30 10:28:07;;;;;;;1.98;0.63;;;;;;;12.22;100.00;99457.53;5023498;28;20026;-84
2022/10/30 10:31:01;;;;;;;1.35;0.85;;;;;;;12.13;100.00;99451.59;5008088;28;20392;-83
2022/10/30 10:33:44;;;;;;;0.88;0.70;;;;;;;12.23;100.00;99465.41;5012693;28;20029;-82
2022/10/30 10:36:13;;;;;;;0.60;0.60;;;;;;;12.32;100.00;99466.78;4996682;28;20033;-83
2022/10/30 10:38:51;;;;;;;1.00;0.70;;;;;;;12.42;100.00;99477.09;5014461;28;20048;-82
2022/10/30 10:41:26;;;;;;;0.57;0.57;;;;;;;12.51;100.00;99474.94;5005448;28;20034;-85
2022/10/30 10:44:23;;;;;;;0.75;0.60;;;;;;;12.59;100.00;99482.75;5013621;28;20076;-81
2022/10/30 10:47:31;;;;;;;1.00;0.90;;;;;;;12.80;100.00;99489.63;5001301;28;20038;-85
2022/10/30 10:50:37;;;;;;;3.38;0.98;;;;;;;13.69;100.00;99483.94;5002094;28;20048;-82
2022/10/30 10:53:10;;;;;;;1.02;0.82;;;;;;;14.60;100.00;99480.13;5024696;28;20135;-83
2022/10/30 10:55:41;;;;;;;1.13;0.60;;;;;;;14.67;100.00;99498.97;4997106;28;20148;-85
2022/10/30 10:58:33;;;;;;;2.80;1.13;;;;;;;14.10;100.00;99506.66;5005364;28;20065;-84
2022/10/30 11:00:59;;;;;;;2.10;1.00;;;;;;;13.44;100.00;99511.84;5023817;28;20041;-83
2022/10/30 11:03:37;;;;;;;1.48;0.82;;;;;;;12.98;100.00;99518.53;5029608;28;20045;-82
2022/10/30 11:06:34;;;;;;;1.48;0.90;;;;;;;12.67;100.00;99517.53;5020873;28;20040;-82
2022/10/30 11:09:15;;;;;;;1.98;1.15;;;;;;;12.58;100.00;99508.06;5007359;28;20034;-82
2022/10/30 11:11:43;;;;;;;1.70;0.70;;;;;;;12.78;100.00;99518.72;5044746;28;20467;-83
2022/10/30 11:14:17;;;;;;;0.95;0.77;;;;;;;13.54;100.00;99522.13;5009874;28;20575;-80
2022/10/30 11:17:11;;;;;;;1.67;1.08;;;;;;;17.55;95.19;99534.81;5003362;28;20491;-77
2022/10/30 11:19:37;;;;;;;2.92;1.15;;;;;;;18.86;88.04;99532.16;5020610;28;20033;-77
2022/10/30 11:22:12;;;;;;;4.43;0.80;;;;;;;18.87;83.93;99539.25;5008084;28;20041;-78
2022/10/30 11:24:37;;;;;;;1.35;0.70;;;;;;;18.77;84.42;99548.16;5033093;28;20111;-77
2022/10/30 11:27:24;;;;;;;0.68;0.60;;;;;;;18.11;86.42;99550.19;5006925;28;20468;-77
2022/10/30 11:29:53;;;;;;;2.05;0.60;;;;;;;18.31;87.54;99553.16;4997873;28;20494;-78
2022/10/30 11:32:21;;;;;;;1.48;0.90;;;;;;;17.78;92.02;99555.50;5009648;28;20034;-78